createdAt,value
2023-01-07T00:01:54.809Z,16.28
2023-01-07T00:06:47.512Z,16.24
2023-01-07T00:11:41.691Z,16.26
2023-01-07T00:16:38.767Z,16.30
2023-01-07T00:21:35.139Z,16.35
2023-01-07T00:26:28.656Z,16.29
2023-01-07T00:31:23.125Z,16.31
2023-01-07T00:36:15.020Z,16.22
2023-01-07T00:41:10.760Z,16.23
2023-01-07T00:46:02.087Z,16.34
2023-01-07T00:50:54.905Z,16.34
2023-01-07T00:55:47.493Z,16.13
2023-01-07T01:00:41.284Z,16.36
2023-01-07T01:05:35.266Z,16.35
2023-01-07T01:10:28.416Z,16.36
2023-01-07T01:15:21.150Z,16.50
2023-01-07T01:20:17.772Z,16.47
2023-01-07T01:25:10.675Z,16.44
2023-01-07T01:30:03.917Z,16.50
2023-01-07T01:34:58.152Z,16.48
2023-01-07T01:39:52.291Z,16.43
2023-01-07T01:44:54.362Z,16.32
2023-01-07T01:50:05.818Z,16.27
2023-01-07T01:55:05.081Z,16.13
2023-01-07T02:00:01.423Z,16.14
2023-01-07T02:04:56.939Z,16.06
2023-01-07T02:09:55.494Z,15.99
2023-01-07T02:15:11.171Z,16.02
2023-01-07T02:20:26.850Z,15.97
2023-01-07T02:25:50.164Z,15.86
2023-01-07T02:31:05.551Z,15.83
2023-01-07T02:36:12.640Z,15.74
2023-01-07T02:41:11.652Z,15.65
2023-01-07T02:46:11.480Z,15.43
2023-01-07T02:51:05.934Z,15.51
2023-01-07T02:56:14.707Z,15.48
2023-01-07T03:01:47.679Z,15.46
2023-01-07T03:06:57.970Z,15.37
2023-01-07T03:11:56.594Z,15.47
2023-01-07T03:17:03.717Z,15.32
2023-01-07T03:21:59.897Z,15.18
2023-01-07T03:26:56.387Z,15.14
2023-01-07T03:32:01.275Z,15.21
2023-01-07T03:36:59.719Z,15.25
2023-01-07T03:42:05.497Z,15.11
2023-01-07T03:46:56.652Z,15.03
2023-01-07T03:51:50.744Z,14.88
2023-01-07T03:56:48.475Z,15.17
2023-01-07T04:01:41.578Z,15.16
2023-01-07T04:06:34.838Z,15.19
2023-01-07T04:11:46.530Z,15.12
2023-01-07T04:16:43.470Z,15.17
2023-01-07T04:21:33.552Z,15.13
2023-01-07T04:26:27.062Z,15.04
2023-01-07T04:31:19.725Z,15.12
2023-01-07T04:36:16.809Z,15.10
2023-01-07T04:41:09.645Z,15.06
2023-01-07T04:46:05.117Z,15.09
2023-01-07T04:50:59.538Z,15.14
2023-01-07T04:55:55.031Z,15.13
2023-01-07T05:00:46.683Z,15.07
2023-01-07T05:05:48.261Z,15.14
2023-01-07T05:10:52.073Z,15.19
2023-01-07T05:15:48.387Z,15.03
2023-01-07T05:20:50.069Z,15.02
2023-01-07T05:25:46.553Z,15.27
2023-01-07T05:30:40.208Z,15.17
2023-01-07T05:35:37.222Z,15.23
2023-01-07T05:40:27.530Z,15.22
2023-01-07T05:45:21.935Z,15.29
2023-01-07T05:50:20.209Z,15.12
2023-01-07T05:55:26.880Z,15.20
2023-01-07T06:00:21.751Z,15.19
2023-01-07T06:05:21.914Z,15.19
2023-01-07T06:10:18.193Z,15.17
2023-01-07T06:15:10.148Z,15.12
2023-01-07T06:19:59.914Z,14.98
2023-01-07T06:24:54.950Z,15.12
2023-01-07T06:29:49.577Z,15.27
2023-01-07T06:34:44.971Z,15.20
2023-01-07T06:39:38.570Z,15.27
2023-01-07T06:44:35.963Z,15.22
2023-01-07T06:49:29.952Z,15.37
2023-01-07T06:54:21.773Z,15.31
2023-01-07T06:59:16.032Z,15.41
2023-01-07T07:04:07.851Z,15.45
2023-01-07T07:09:12.652Z,15.41
2023-01-07T07:14:08.419Z,15.24
2023-01-07T07:19:01.037Z,15.43
2023-01-07T07:23:52.586Z,15.39
2023-01-07T07:28:50.700Z,15.29
2023-01-07T07:33:43.837Z,15.41
2023-01-07T07:38:39.808Z,15.41
2023-01-07T07:43:36.087Z,15.36
2023-01-07T07:48:30.819Z,15.36
2023-01-07T07:53:23.185Z,15.22
2023-01-07T07:58:14.636Z,15.25
2023-01-07T08:03:05.801Z,15.24
2023-01-07T08:08:04.409Z,15.26
2023-01-07T08:12:55.893Z,15.20
2023-01-07T08:17:48.134Z,15.21
2023-01-07T08:22:39.494Z,15.22
2023-01-07T08:27:33.632Z,15.20
2023-01-07T08:32:28.420Z,15.21
2023-01-07T08:37:19.887Z,15.13
2023-01-07T08:42:13.813Z,15.13
2023-01-07T08:47:06.575Z,15.20
2023-01-07T08:51:58.301Z,15.16
2023-01-07T08:56:48.292Z,15.26
2023-01-07T09:01:40.307Z,15.29
2023-01-07T09:06:35.959Z,15.16
2023-01-07T09:11:28.410Z,15.37
2023-01-07T09:16:19.873Z,15.28
2023-01-07T09:21:13.743Z,15.46
2023-01-07T09:26:07.838Z,15.53
2023-01-07T09:31:00.751Z,15.57
2023-01-07T09:35:53.036Z,15.66
2023-01-07T09:40:48.554Z,15.71
2023-01-07T09:45:45.628Z,15.61
2023-01-07T09:50:47.138Z,15.60
2023-01-07T09:56:11.733Z,15.77
2023-01-07T10:01:15.778Z,15.90
2023-01-07T10:06:14.373Z,16.13
2023-01-07T10:11:18.906Z,16.54
2023-01-07T10:16:21.838Z,16.65
2023-01-07T10:21:23.514Z,16.82
2023-01-07T10:26:23.954Z,16.84
2023-01-07T10:31:21.081Z,16.98
2023-01-07T10:36:24.007Z,16.99
2023-01-07T10:41:23.395Z,17.02
2023-01-07T10:46:43.400Z,16.93
2023-01-07T10:51:59.128Z,16.94
2023-01-07T10:56:54.979Z,16.96
2023-01-07T11:01:55.802Z,16.84
2023-01-07T11:06:56.406Z,16.83
2023-01-07T11:11:54.410Z,17.00
2023-01-07T11:16:51.532Z,17.08
2023-01-07T11:21:52.833Z,17.06
2023-01-07T11:26:50.697Z,17.09
2023-01-07T11:31:54.034Z,16.97
2023-01-07T11:36:58.733Z,17.02
2023-01-07T11:42:00.797Z,16.81
2023-01-07T11:47:00.648Z,16.81
2023-01-07T11:51:53.897Z,16.79
2023-01-07T11:56:48.924Z,16.70
2023-01-07T12:01:51.478Z,16.65
2023-01-07T12:06:48.355Z,16.65
2023-01-07T12:11:42.447Z,16.71
2023-01-07T12:16:33.362Z,16.69
2023-01-07T12:21:46.629Z,16.76
2023-01-07T12:26:47.553Z,16.82
2023-01-07T12:31:53.511Z,16.68
2023-01-07T12:36:55.413Z,16.71
2023-01-07T12:41:53.618Z,16.72
2023-01-07T12:46:53.610Z,16.80
2023-01-07T12:52:16.961Z,16.84
2023-01-07T12:57:15.274Z,16.82
2023-01-07T13:02:22.085Z,16.84
2023-01-07T13:07:20.758Z,16.90
2023-01-07T13:12:40.762Z,16.90
2023-01-07T13:17:37.679Z,16.90
2023-01-07T13:22:37.380Z,16.90
2023-01-07T13:27:40.496Z,16.85
2023-01-07T13:33:01.692Z,16.95
2023-01-07T13:38:10.583Z,16.97
2023-01-07T13:43:13.504Z,16.94
2023-01-07T13:48:10.339Z,16.86
2023-01-07T13:53:09.795Z,16.89
2023-01-07T13:58:03.066Z,16.80
2023-01-07T14:02:59.381Z,16.68
2023-01-07T14:07:56.823Z,16.60
2023-01-07T14:13:14.420Z,16.52
2023-01-07T14:18:36.123Z,16.43
2023-01-07T14:23:38.779Z,16.63
2023-01-07T14:29:07.053Z,16.63
2023-01-07T14:34:09.364Z,16.61
2023-01-07T14:39:05.200Z,16.71
2023-01-07T14:44:34.636Z,16.62
2023-01-07T14:49:59.558Z,16.72
2023-01-07T14:55:21.718Z,16.64
2023-01-07T15:00:38.989Z,16.57
2023-01-07T15:06:13.761Z,16.33
2023-01-07T15:11:19.449Z,16.52
2023-01-07T15:16:16.639Z,16.43
2023-01-07T15:21:19.841Z,16.47
2023-01-07T15:26:20.829Z,16.42
2023-01-07T15:31:26.568Z,16.32
2023-01-07T15:36:22.195Z,16.11
2023-01-07T15:41:28.391Z,15.85
2023-01-07T15:46:28.127Z,16.13
2023-01-07T15:51:20.982Z,16.06
2023-01-07T15:56:34.165Z,15.94
2023-01-07T16:01:30.426Z,15.94
2023-01-07T16:06:34.975Z,15.89
2023-01-07T16:11:31.121Z,15.83
2023-01-07T16:16:22.400Z,15.78
2023-01-07T16:21:18.339Z,15.75
2023-01-07T16:26:12.640Z,15.69
2023-01-07T16:31:12.243Z,15.64
2023-01-07T16:36:05.988Z,15.59
2023-01-07T16:41:09.087Z,15.46
2023-01-07T16:46:28.751Z,15.27
2023-01-07T16:51:38.511Z,15.09
2023-01-07T16:56:32.642Z,14.88
2023-01-07T17:01:38.236Z,14.88
2023-01-07T17:06:34.612Z,14.86
2023-01-07T17:11:33.984Z,14.91
2023-01-07T17:16:34.775Z,14.94
2023-01-07T17:21:46.019Z,14.96
2023-01-07T17:26:40.438Z,14.91
2023-01-07T17:31:35.513Z,14.93
2023-01-07T17:36:29.607Z,14.88
2023-01-07T17:41:36.964Z,14.86
2023-01-07T17:46:27.705Z,14.80
2023-01-07T17:51:20.703Z,14.87
2023-01-07T17:56:11.177Z,14.80
2023-01-07T18:01:03.898Z,14.86
2023-01-07T18:05:57.470Z,14.87
2023-01-07T18:11:12.632Z,14.70
2023-01-07T18:16:04.736Z,14.80
2023-01-07T18:20:57.007Z,14.72
2023-01-07T18:25:51.658Z,14.54
2023-01-07T18:30:42.900Z,14.68
2023-01-07T18:35:35.571Z,14.69
2023-01-07T18:40:26.100Z,14.41
2023-01-07T18:45:21.680Z,14.66
2023-01-07T18:50:14.384Z,14.64
2023-01-07T18:55:05.562Z,14.57
2023-01-07T18:59:59.717Z,14.54
2023-01-07T19:04:55.383Z,14.83
2023-01-07T19:09:47.175Z,14.86
2023-01-07T19:14:39.980Z,14.93
2023-01-07T19:19:47.533Z,14.94
2023-01-07T19:24:41.355Z,15.02
2023-01-07T19:29:31.681Z,14.99
2023-01-07T19:34:21.998Z,15.09
2023-01-07T19:39:18.877Z,15.10
2023-01-07T19:44:13.827Z,15.18
2023-01-07T19:49:08.117Z,15.22
2023-01-07T19:54:02.498Z,15.29
2023-01-07T19:58:56.908Z,15.39
2023-01-07T20:03:50.933Z,15.43
2023-01-07T20:08:42.743Z,15.25
2023-01-07T20:13:36.898Z,15.32
2023-01-07T20:18:31.641Z,15.18
2023-01-07T20:23:25.245Z,15.32
2023-01-07T20:28:15.806Z,15.25
2023-01-07T20:33:11.612Z,15.34
2023-01-07T20:38:07.470Z,15.39
2023-01-07T20:43:02.704Z,15.27
2023-01-07T20:47:56.218Z,15.23
2023-01-07T20:52:49.312Z,15.18
2023-01-07T20:57:41.692Z,15.27
2023-01-07T21:02:37.372Z,15.24
2023-01-07T21:07:29.155Z,15.20
2023-01-07T21:12:19.757Z,15.32
2023-01-07T21:17:17.034Z,15.29
2023-01-07T21:22:10.951Z,15.39
2023-01-07T21:27:06.960Z,15.51
2023-01-07T21:32:01.236Z,15.28
2023-01-07T21:36:56.453Z,15.30
2023-01-07T21:41:50.457Z,15.40
2023-01-07T21:46:43.014Z,15.43
2023-01-07T21:51:35.356Z,15.34
2023-01-07T21:56:29.348Z,15.37
2023-01-07T22:01:28.314Z,15.47
2023-01-07T22:06:25.599Z,15.43
2023-01-07T22:11:17.670Z,15.48
2023-01-07T22:16:09.524Z,15.42
2023-01-07T22:21:08.147Z,15.38
2023-01-07T22:26:07.141Z,15.36
2023-01-07T22:30:59.421Z,15.35
2023-01-07T22:35:51.556Z,15.44
2023-01-07T22:40:45.318Z,15.44
2023-01-07T22:45:42.789Z,15.45
2023-01-07T22:50:34.765Z,15.47
2023-01-07T22:55:26.079Z,15.46
2023-01-07T23:00:45.348Z,15.59
2023-01-07T23:05:38.525Z,15.39
2023-01-07T23:10:39.872Z,14.72
2023-01-07T23:15:34.273Z,14.22
2023-01-07T23:20:26.931Z,13.95
2023-01-07T23:25:18.643Z,13.86
2023-01-07T23:30:14.976Z,13.93
2023-01-07T23:35:12.807Z,13.83
2023-01-07T23:40:04.384Z,13.83
2023-01-07T23:44:58.072Z,13.93
2023-01-07T23:49:49.905Z,13.76
2023-01-07T23:54:44.610Z,13.82
2023-01-07T23:59:38.297Z,13.91
